createdAt,value
2019-06-08T00:01:28.885Z,96107.86
2019-06-08T00:03:54.952Z,96089.14
2019-06-08T00:06:21.115Z,96074.52
2019-06-08T00:08:47.232Z,96081.50
2019-06-08T00:11:13.431Z,96097.16
2019-06-08T00:13:39.593Z,96100.20
2019-06-08T00:16:05.754Z,96099.78
2019-06-08T00:18:31.929Z,96102.25
2019-06-08T00:20:58.103Z,96097.73
2019-06-08T00:23:24.188Z,96089.30
2019-06-08T00:25:50.348Z,96093.41
2019-06-08T00:28:16.476Z,96096.48
2019-06-08T00:30:42.771Z,96096.70
2019-06-08T00:33:08.975Z,96096.27
2019-06-08T00:35:35.179Z,96096.28
2019-06-08T00:38:01.381Z,96111.25
2019-06-08T00:40:27.537Z,96100.77
2019-06-08T00:42:53.618Z,96114.52
2019-06-08T00:45:21.304Z,96110.22
2019-06-08T00:47:48.389Z,96139.36
2019-06-08T00:50:15.186Z,96140.80
2019-06-08T00:52:41.383Z,96136.66
2019-06-08T00:55:13.268Z,96141.20
2019-06-08T00:57:39.344Z,96111.83
2019-06-08T01:00:10.647Z,96145.47
2019-06-08T01:02:34.990Z,96166.18
2019-06-08T01:05:01.154Z,96178.70
2019-06-08T01:07:27.235Z,96180.95
2019-06-08T01:09:53.375Z,96188.96
2019-06-08T01:12:20.474Z,96173.95
2019-06-08T01:14:46.934Z,96181.35
2019-06-08T01:17:13.008Z,96182.35
2019-06-08T01:19:40.138Z,96159.16
2019-06-08T01:22:06.871Z,96160.00
2019-06-08T01:24:33.046Z,96158.73
2019-06-08T01:26:59.117Z,96171.07
2019-06-08T01:29:26.278Z,96175.37
2019-06-08T01:31:52.454Z,96188.72
2019-06-08T01:34:18.606Z,96193.03
2019-06-08T01:36:44.721Z,96185.41
2019-06-08T01:39:10.918Z,96193.20
2019-06-08T01:41:37.070Z,96195.44
2019-06-08T01:44:03.349Z,96192.52
2019-06-08T01:46:30.282Z,96193.11
2019-06-08T01:48:56.483Z,96185.30
2019-06-08T01:51:22.625Z,96188.41
2019-06-08T01:53:48.686Z,96193.94
2019-06-08T01:56:33.763Z,96198.84
2019-06-08T01:59:00.565Z,96201.92
2019-06-08T02:01:27.752Z,96211.48
2019-06-08T02:03:54.025Z,96208.59
2019-06-08T02:06:20.180Z,96208.53
2019-06-08T02:08:46.332Z,96212.80
2019-06-08T02:11:12.388Z,96197.77
2019-06-08T02:13:38.527Z,96195.05
2019-06-08T02:16:04.643Z,96186.98
2019-06-08T02:18:38.872Z,96178.11
2019-06-08T02:20:58.756Z,96173.73
2019-06-08T02:23:24.903Z,96170.81
2019-06-08T02:25:51.007Z,96180.22
2019-06-08T02:28:17.217Z,96178.96
2019-06-08T02:30:43.388Z,96187.79
2019-06-08T02:33:09.439Z,96184.48
2019-06-08T02:35:37.631Z,96188.55
2019-06-08T02:38:04.017Z,96198.95
2019-06-08T02:40:32.462Z,96185.36
2019-06-08T02:42:58.220Z,96176.29
2019-06-08T02:45:24.669Z,96183.83
2019-06-08T02:47:50.729Z,96184.58
2019-06-08T02:50:20.671Z,96190.66
2019-06-08T02:52:47.137Z,96199.22
2019-06-08T02:55:14.096Z,96205.11
2019-06-08T02:57:42.056Z,96198.02
2019-06-08T03:00:09.630Z,96196.94
2019-06-08T03:02:39.108Z,96187.88
2019-06-08T03:05:06.544Z,96194.59
2019-06-08T03:07:34.371Z,96200.47
2019-06-08T03:10:01.747Z,96189.36
2019-06-08T03:12:30.939Z,96192.77
2019-06-08T03:14:57.349Z,96184.13
2019-06-08T03:17:23.524Z,96180.02
2019-06-08T03:19:49.725Z,96190.00
2019-06-08T03:22:15.911Z,96201.02
2019-06-08T03:24:44.057Z,96198.72
2019-06-08T03:27:10.139Z,96198.29
2019-06-08T03:29:37.197Z,96208.09
2019-06-08T03:32:04.678Z,96213.41
2019-06-08T03:34:30.755Z,96224.06
2019-06-08T03:36:57.732Z,96227.55
2019-06-08T03:39:24.059Z,96260.29
2019-06-08T03:41:50.246Z,96260.47
2019-06-08T03:44:16.433Z,96275.63
2019-06-08T03:46:44.077Z,96289.37
2019-06-08T03:49:10.761Z,96288.83
2019-06-08T03:51:40.225Z,96280.30
2019-06-08T03:54:04.902Z,96292.25
2019-06-08T03:56:31.005Z,96278.58
2019-06-08T03:58:57.519Z,96278.03
2019-06-08T04:01:23.689Z,96280.14
2019-06-08T04:03:50.306Z,96276.27
2019-06-08T04:06:17.725Z,96268.29
2019-06-08T04:08:45.287Z,96280.14
2019-06-08T04:11:11.848Z,96281.31
2019-06-08T04:13:39.770Z,96280.33
2019-06-08T04:16:06.010Z,96288.75
2019-06-08T04:18:32.082Z,96289.22
2019-06-08T04:20:58.244Z,96293.34
2019-06-08T04:23:24.431Z,96292.79
2019-06-08T04:25:50.779Z,96295.55
2019-06-08T04:28:17.010Z,96301.31
2019-06-08T04:30:45.121Z,96291.50
2019-06-08T04:33:11.213Z,96298.47
2019-06-08T04:35:38.183Z,96309.43
2019-06-08T04:38:05.270Z,96301.81
2019-06-08T04:40:31.499Z,96322.27
2019-06-08T04:42:57.733Z,96322.56
2019-06-08T04:45:23.912Z,96324.20
2019-06-08T04:47:50.231Z,96312.28
2019-06-08T04:50:23.391Z,96319.95
2019-06-08T04:52:45.015Z,96324.28
2019-06-08T04:55:11.972Z,96326.95
2019-06-08T04:57:39.295Z,96322.75
2019-06-08T05:00:11.735Z,96344.95
2019-06-08T05:02:36.279Z,96352.67
2019-06-08T05:05:05.628Z,96368.48
2019-06-08T05:07:31.760Z,96377.30
2019-06-08T05:09:57.843Z,96383.99
2019-06-08T05:12:24.001Z,96401.83
2019-06-08T05:14:50.056Z,96406.32
2019-06-08T05:17:16.208Z,96402.82
2019-06-08T05:19:43.488Z,96408.80
2019-06-08T05:22:09.757Z,96405.77
2019-06-08T05:24:36.034Z,96412.74
2019-06-08T05:27:02.437Z,96410.45
2019-06-08T05:29:28.683Z,96419.27
2019-06-08T05:31:54.910Z,96407.59
2019-06-08T05:34:21.198Z,96417.63
2019-06-08T05:36:47.533Z,96416.43
2019-06-08T05:39:13.797Z,96414.42
2019-06-08T05:41:39.850Z,96415.22
2019-06-08T05:44:06.193Z,96403.77
2019-06-08T05:46:32.341Z,96405.41
2019-06-08T05:48:58.613Z,96424.89
2019-06-08T05:51:24.757Z,96419.27
2019-06-08T05:53:50.904Z,96422.30
2019-06-08T05:56:17.358Z,96416.06
2019-06-08T05:58:43.966Z,96423.77
2019-06-08T06:01:10.170Z,96431.46
2019-06-08T06:03:36.221Z,96435.30
2019-06-08T06:06:02.571Z,96438.80
2019-06-08T06:08:28.627Z,96439.60
2019-06-08T06:10:54.801Z,96446.31
2019-06-08T06:13:20.941Z,96454.48
2019-06-08T06:15:47.282Z,96450.62
2019-06-08T06:18:13.429Z,96445.66
2019-06-08T06:20:40.977Z,96453.20
2019-06-08T06:23:08.361Z,96465.85
2019-06-08T06:25:34.559Z,96478.63
2019-06-08T06:28:00.835Z,96483.59
2019-06-08T06:30:27.022Z,96486.08
2019-06-08T06:32:53.241Z,96487.09
2019-06-08T06:35:19.329Z,96493.05
2019-06-08T06:37:45.942Z,96495.70
2019-06-08T06:40:12.420Z,96490.71
2019-06-08T06:42:38.767Z,96499.80
2019-06-08T06:45:05.757Z,96503.96
2019-06-08T06:47:31.912Z,96499.44
2019-06-08T06:49:58.138Z,96504.77
2019-06-08T06:52:24.292Z,96496.60
2019-06-08T06:54:51.263Z,96502.29
2019-06-08T06:57:17.605Z,96495.50
2019-06-08T06:59:43.678Z,96490.34
2019-06-08T07:02:09.824Z,96491.01
2019-06-08T07:04:35.931Z,96479.99
2019-06-08T07:07:02.417Z,96489.63
2019-06-08T07:09:28.540Z,96495.07
2019-06-08T07:11:56.649Z,96495.15
2019-06-08T07:14:22.726Z,96508.58
2019-06-08T07:16:49.858Z,96502.23
2019-06-08T07:19:16.042Z,96508.15
2019-06-08T07:21:42.371Z,96516.22
2019-06-08T07:24:08.588Z,96528.63
2019-06-08T07:26:35.724Z,96532.58
2019-06-08T07:29:01.842Z,96523.77
2019-06-08T07:31:27.995Z,96541.23
2019-06-08T07:33:55.641Z,96532.50
2019-06-08T07:36:21.940Z,96542.69
2019-06-08T07:38:48.693Z,96543.71
2019-06-08T07:41:16.142Z,96550.06
2019-06-08T07:43:42.208Z,96543.34
2019-06-08T07:46:08.395Z,96550.32
2019-06-08T07:48:34.498Z,96552.37
2019-06-08T07:51:00.687Z,96542.80
2019-06-08T07:53:26.885Z,96552.55
2019-06-08T07:55:54.059Z,96556.48
2019-06-08T07:58:20.209Z,96566.33
2019-06-08T08:00:46.367Z,96548.66
2019-06-08T08:03:12.509Z,96561.63
2019-06-08T08:05:39.934Z,96569.77
2019-06-08T08:08:06.074Z,96567.80
2019-06-08T08:10:32.145Z,96580.52
2019-06-08T08:12:59.274Z,96566.00
2019-06-08T08:15:25.915Z,96571.73
2019-06-08T08:17:53.762Z,96540.11
2019-06-08T08:20:20.174Z,96540.11
2019-06-08T08:22:49.285Z,96572.95
2019-06-08T08:25:18.276Z,96564.98
2019-06-08T08:27:45.056Z,96558.53
2019-06-08T08:30:11.937Z,96561.42
2019-06-08T08:32:38.265Z,96568.47
2019-06-08T08:35:04.859Z,96574.74
2019-06-08T08:43:09.495Z,96571.65
2019-06-08T08:43:37.685Z,96561.34
2019-06-08T08:46:04.180Z,96558.24
2019-06-08T08:48:31.704Z,96572.14
2019-06-08T08:51:03.260Z,96594.52
2019-06-08T08:53:28.095Z,96583.06
2019-06-08T08:55:54.586Z,96592.30
2019-06-08T08:58:21.608Z,96586.37
2019-06-08T09:00:48.697Z,96569.26
2019-06-08T09:03:28.445Z,96577.65
2019-06-08T09:05:43.159Z,96588.35
2019-06-08T09:08:09.337Z,96587.95
2019-06-08T09:10:38.094Z,96587.95
2019-06-08T09:13:04.749Z,96583.72
2019-06-08T09:15:31.492Z,96583.03
2019-06-08T09:18:00.233Z,96588.00
2019-06-08T09:20:28.570Z,96584.28
2019-06-08T09:23:03.954Z,96588.53
2019-06-08T09:25:22.479Z,96609.02
2019-06-08T09:27:48.774Z,96587.53
2019-06-08T09:30:18.286Z,96588.70
2019-06-08T09:32:44.815Z,96605.81
2019-06-08T09:35:11.294Z,96599.43
2019-06-08T09:37:37.637Z,96599.43
2019-06-08T09:40:04.681Z,96602.30
2019-06-08T09:42:30.934Z,96613.72
2019-06-08T09:45:00.418Z,96625.08
2019-06-08T09:47:25.225Z,96614.51
2019-06-08T09:49:53.758Z,96619.51
2019-06-08T09:52:21.695Z,96629.91
2019-06-08T09:54:48.543Z,96630.38
2019-06-08T09:57:14.859Z,96626.86
2019-06-08T09:59:42.277Z,96629.73
2019-06-08T10:02:12.694Z,96635.90
2019-06-08T10:04:41.964Z,96643.53
2019-06-08T10:07:08.854Z,96631.44
2019-06-08T10:09:35.141Z,96624.63
2019-06-08T10:12:09.765Z,96630.84
2019-06-08T10:14:34.492Z,96637.70
2019-06-08T10:17:05.670Z,96633.79
2019-06-08T10:23:27.216Z,96630.86
2019-06-08T10:25:12.850Z,96635.22
2019-06-08T10:27:43.499Z,96632.11
2019-06-08T10:30:30.339Z,96626.71
2019-06-08T10:33:01.604Z,96630.01
2019-06-08T10:35:28.332Z,96634.13
2019-06-08T10:37:57.766Z,96633.06
2019-06-08T10:40:28.402Z,96624.98
2019-06-08T10:43:12.920Z,96611.31
2019-06-08T10:45:51.660Z,96611.53
2019-06-08T10:48:19.838Z,96607.36
2019-06-08T10:53:52.539Z,96608.01
2019-06-08T10:56:27.943Z,96600.67
2019-06-08T10:58:51.325Z,96616.02
2019-06-08T11:01:24.996Z,96610.77
2019-06-08T11:04:43.755Z,96612.47
2019-06-08T11:06:31.670Z,96617.37
2019-06-08T11:09:18.764Z,96615.31
2019-06-08T11:11:42.820Z,96628.72
2019-06-08T11:14:12.633Z,96618.61
2019-06-08T11:16:38.521Z,96626.57
2019-06-08T11:19:12.915Z,96611.75
2019-06-08T11:21:38.527Z,96606.45
2019-06-08T11:24:16.493Z,96598.62
2019-06-08T11:26:33.642Z,96605.72
2019-06-08T11:29:02.599Z,96604.63
2019-06-08T11:31:32.048Z,96598.94
2019-06-08T11:33:58.935Z,96602.92
2019-06-08T11:36:28.294Z,96613.83
2019-06-08T11:42:19.067Z,96595.36
2019-06-08T11:44:47.972Z,96597.45
2019-06-08T11:47:13.678Z,96596.02
2019-06-08T11:49:40.117Z,96591.28
2019-06-08T11:52:06.912Z,96588.69
2019-06-08T11:54:37.440Z,96607.47
2019-06-08T11:57:02.749Z,96618.04
2019-06-08T11:59:30.750Z,96610.48
2019-06-08T12:01:58.576Z,96616.91
2019-06-08T12:04:24.888Z,96620.33
2019-06-08T12:06:51.089Z,96617.42
2019-06-08T12:09:19.791Z,96626.42
2019-06-08T12:11:48.012Z,96617.02
2019-06-08T12:14:44.239Z,96621.87
2019-06-08T12:17:15.592Z,96613.38
2019-06-08T12:20:14.442Z,96608.48
2019-06-08T12:22:21.670Z,96599.17
2019-06-08T12:24:50.199Z,96603.88
2019-06-08T12:27:29.147Z,96614.14
2019-06-08T12:29:50.225Z,96615.70
2019-06-08T12:32:27.844Z,96623.52
2019-06-08T12:34:48.421Z,96632.34
2019-06-08T12:37:24.476Z,96613.17
2019-06-08T12:39:52.206Z,96640.59
2019-06-08T12:42:24.387Z,96628.42
2019-06-08T12:44:47.603Z,96634.41
2019-06-08T12:47:31.817Z,96640.59
2019-06-08T12:49:58.603Z,96633.91
2019-06-08T12:52:29.502Z,96614.98
2019-06-08T12:58:00.800Z,96660.81
2019-06-08T13:00:28.159Z,96657.42
2019-06-08T13:02:57.987Z,96657.09
2019-06-08T13:05:23.114Z,96658.68
2019-06-08T13:07:50.644Z,96663.55
2019-06-08T13:10:23.443Z,96666.77
2019-06-08T13:12:49.834Z,96660.69
2019-06-08T13:15:21.736Z,96665.89
2019-06-08T13:17:51.335Z,96659.40
2019-06-08T13:20:22.554Z,96656.02
2019-06-08T13:22:51.956Z,96644.72
2019-06-08T13:25:36.142Z,96657.13
2019-06-08T13:27:48.542Z,96660.57
2019-06-08T13:30:19.740Z,96660.95
2019-06-08T13:32:48.086Z,96656.59
2019-06-08T13:35:20.725Z,96657.96
2019-06-08T13:37:48.362Z,96657.03
2019-06-08T13:40:20.084Z,96663.08
2019-06-08T13:42:51.268Z,96657.21
2019-06-08T13:45:18.832Z,96665.16
2019-06-08T13:47:50.232Z,96660.33
2019-06-08T13:50:22.175Z,96660.33
2019-06-08T13:52:54.625Z,96652.09
2019-06-08T13:55:47.399Z,96654.05
2019-06-08T13:58:00.597Z,96653.31
2019-06-08T14:01:21.698Z,96643.72
2019-06-08T14:03:31.647Z,96642.92
2019-06-08T14:09:05.292Z,96646.20
2019-06-08T14:11:35.124Z,96650.41
2019-06-08T14:18:34.924Z,96654.62
2019-06-08T14:20:08.031Z,96657.48
2019-06-08T14:34:10.318Z,96665.70
2019-06-08T14:38:55.721Z,96657.69
2019-06-08T14:41:59.360Z,96662.44
2019-06-08T15:07:30.781Z,96646.75
2019-06-08T15:10:00.518Z,96644.23
2019-06-08T15:15:32.176Z,96643.53
2019-06-08T15:24:00.215Z,96641.91
2019-06-08T15:26:42.776Z,96654.19
2019-06-08T15:31:59.232Z,96644.16
2019-06-08T15:34:29.569Z,96637.35
2019-06-08T15:36:54.415Z,96647.73
2019-06-08T15:39:21.641Z,96658.29
2019-06-08T15:41:48.753Z,96647.83
2019-06-08T15:44:19.009Z,96647.80
2019-06-08T15:46:43.418Z,96647.91
2019-06-08T15:49:11.068Z,96644.27
2019-06-08T15:51:40.744Z,96644.41
2019-06-08T15:54:08.099Z,96644.32
2019-06-08T15:56:45.606Z,96657.23
2019-06-08T15:59:02.176Z,96647.44
2019-06-08T16:01:29.430Z,96639.29
2019-06-08T16:03:55.690Z,96647.02
2019-06-08T16:06:39.191Z,96637.39
2019-06-08T16:09:07.259Z,96641.48
2019-06-08T16:11:38.023Z,96647.44
2019-06-08T16:14:04.436Z,96643.63
2019-06-08T16:16:45.550Z,96638.49
2019-06-08T16:22:00.694Z,96639.04
2019-06-08T16:27:37.921Z,96630.48
2019-06-08T16:30:09.430Z,96643.91
2019-06-08T16:32:35.355Z,96644.38
2019-06-08T16:35:16.021Z,96644.42
2019-06-08T16:37:42.310Z,96642.91
2019-06-08T16:40:09.319Z,96634.13
2019-06-08T16:42:40.867Z,96639.08
2019-06-08T16:45:08.737Z,96643.31
2019-06-08T16:47:35.270Z,96636.02
2019-06-08T16:50:03.756Z,96636.71
2019-06-08T16:52:30.396Z,96646.87
2019-06-08T16:55:36.151Z,96656.95
2019-06-08T16:58:01.325Z,96646.59
2019-06-08T17:00:34.518Z,96656.86
2019-06-08T17:02:55.760Z,96646.42
2019-06-08T17:05:22.088Z,96647.56
2019-06-08T17:07:48.832Z,96648.59
2019-06-08T17:10:21.939Z,96658.92
2019-06-08T17:12:48.121Z,96652.98
2019-06-08T17:15:15.048Z,96645.17
2019-06-08T17:17:41.629Z,96642.70
2019-06-08T17:20:08.263Z,96649.00
2019-06-08T17:22:38.694Z,96642.13
2019-06-08T17:25:08.253Z,96662.80
2019-06-08T17:27:34.633Z,96649.61
2019-06-08T17:30:08.027Z,96655.61
2019-06-08T17:32:29.727Z,96656.06
2019-06-08T17:34:58.049Z,96657.41
2019-06-08T17:37:24.333Z,96652.75
2019-06-08T17:39:50.716Z,96663.22
2019-06-08T17:42:17.128Z,96663.22
2019-06-08T17:44:43.516Z,96669.44
2019-06-08T17:47:09.711Z,96663.89
2019-06-08T17:49:36.780Z,96671.35
2019-06-08T17:52:03.284Z,96671.22
2019-06-08T17:54:29.512Z,96678.48
2019-06-08T17:56:55.662Z,96676.30
2019-06-08T17:59:21.987Z,96681.77
2019-06-08T18:01:48.199Z,96686.17
2019-06-08T18:04:14.394Z,96683.16
2019-06-08T18:06:41.795Z,96687.59
2019-06-08T18:09:08.903Z,96692.56
2019-06-08T18:11:38.954Z,96694.05
2019-06-08T18:14:07.318Z,96700.08
2019-06-08T18:16:38.956Z,96694.16
2019-06-08T18:19:28.037Z,96690.06
2019-06-08T18:21:55.180Z,96699.20
2019-06-08T18:24:21.755Z,96696.77
2019-06-08T18:26:48.276Z,96704.64
2019-06-08T18:29:14.603Z,96709.84
2019-06-08T18:31:42.976Z,96706.13
2019-06-08T18:34:09.306Z,96706.17
2019-06-08T18:36:38.061Z,96704.54
2019-06-08T18:39:07.256Z,96706.01
2019-06-08T18:41:41.206Z,96703.53
2019-06-08T18:44:12.169Z,96721.11
2019-06-08T18:46:40.380Z,96717.58
2019-06-08T18:49:08.076Z,96718.63
2019-06-08T18:51:35.136Z,96724.19
2019-06-08T18:54:11.777Z,96738.64
2019-06-08T18:56:29.294Z,96736.17
2019-06-08T18:58:58.167Z,96737.59
2019-06-08T19:01:24.032Z,96743.34
2019-06-08T19:03:52.552Z,96748.08
2019-06-08T19:06:19.160Z,96749.50
2019-06-08T19:08:49.197Z,96760.80
2019-06-08T19:11:19.239Z,96763.64
2019-06-08T19:13:47.342Z,96765.64
2019-06-08T19:16:14.485Z,96769.66
2019-06-08T19:18:45.810Z,96770.59
2019-06-08T19:21:09.738Z,96776.91
2019-06-08T19:23:39.033Z,96773.92
2019-06-08T19:26:04.668Z,96779.15
2019-06-08T19:28:36.241Z,96788.92
2019-06-08T19:30:59.012Z,96782.23
2019-06-08T19:33:27.571Z,96786.02
2019-06-08T19:35:54.019Z,96790.22
2019-06-08T19:38:20.528Z,96788.79
2019-06-08T19:40:46.739Z,96791.05
2019-06-08T19:43:12.963Z,96790.16
2019-06-08T19:45:41.840Z,96795.86
2019-06-08T19:48:08.250Z,96798.64
2019-06-08T19:50:34.609Z,96799.20
2019-06-08T19:53:00.680Z,96802.31
2019-06-08T19:55:26.828Z,96799.94
2019-06-08T19:57:53.024Z,96800.66
2019-06-08T20:00:19.413Z,96801.84
2019-06-08T20:02:47.967Z,96810.03
2019-06-08T20:05:13.803Z,96819.78
2019-06-08T20:07:40.789Z,96814.69
2019-06-08T20:10:09.582Z,96815.41
2019-06-08T20:12:37.227Z,96817.63
2019-06-08T20:15:08.512Z,96810.13
2019-06-08T20:17:34.166Z,96821.52
2019-06-08T20:20:00.840Z,96823.13
2019-06-08T20:22:27.664Z,96819.52
2019-06-08T20:24:55.926Z,96823.78
2019-06-08T20:27:22.259Z,96829.40
2019-06-08T20:29:50.632Z,96828.16
2019-06-08T20:32:18.427Z,96833.23
2019-06-08T20:34:49.038Z,96838.41
2019-06-08T20:37:13.845Z,96838.23
2019-06-08T20:39:40.032Z,96840.73
2019-06-08T20:42:11.507Z,96838.23
2019-06-08T20:44:34.286Z,96839.55
2019-06-08T20:47:01.820Z,96841.40
2019-06-08T20:49:28.072Z,96838.56
2019-06-08T20:51:54.229Z,96841.40
2019-06-08T20:54:20.598Z,96837.05
2019-06-08T20:56:47.952Z,96845.71
2019-06-08T20:59:28.949Z,96842.20
2019-06-08T21:01:43.663Z,96840.23
2019-06-08T21:04:18.075Z,96839.77
2019-06-08T21:07:08.166Z,96839.42
2019-06-08T21:09:44.938Z,96842.90
2019-06-08T21:12:17.768Z,96837.10
2019-06-08T21:15:14.354Z,96833.94
2019-06-08T21:17:49.051Z,96836.30
2019-06-08T21:20:14.943Z,96838.34
2019-06-08T21:22:41.805Z,96838.05
2019-06-08T21:27:35.076Z,96834.41
2019-06-08T21:30:08.463Z,96833.23
2019-06-08T21:32:29.417Z,96837.07
2019-06-08T21:34:57.599Z,96840.23
2019-06-08T21:37:23.995Z,96846.70
2019-06-08T21:39:55.312Z,96843.41
2019-06-08T21:42:18.872Z,96838.72
2019-06-08T21:44:47.652Z,96842.90
2019-06-08T21:47:13.483Z,96838.39
2019-06-08T21:49:40.682Z,96839.39
2019-06-08T21:52:07.361Z,96847.38
2019-06-08T21:54:33.657Z,96851.86
2019-06-08T21:57:01.137Z,96858.36
2019-06-08T21:59:27.502Z,96852.70
2019-06-08T22:01:59.422Z,96851.20
2019-06-08T22:04:23.735Z,96861.51
2019-06-08T22:06:49.923Z,96863.69
2019-06-08T22:09:17.648Z,96874.14
2019-06-08T22:11:47.001Z,96865.02
2019-06-08T22:14:12.620Z,96871.15
2019-06-08T22:16:38.952Z,96864.84
2019-06-08T22:19:07.959Z,96875.80
2019-06-08T22:21:37.538Z,96873.14
2019-06-08T22:24:07.762Z,96875.64
2019-06-08T22:26:39.761Z,96883.45
2019-06-08T22:29:07.818Z,96876.63
2019-06-08T22:31:33.981Z,96885.62
2019-06-08T22:34:02.104Z,96878.28
2019-06-08T22:36:28.262Z,96881.95
2019-06-08T22:38:57.496Z,96881.60
2019-06-08T22:41:22.753Z,96882.61
2019-06-08T22:43:53.449Z,96887.41
2019-06-08T22:46:19.654Z,96883.27
2019-06-08T22:48:47.804Z,96888.73
2019-06-08T22:51:13.916Z,96882.75
2019-06-08T22:53:40.105Z,96890.56
2019-06-08T22:56:07.896Z,96884.27
2019-06-08T22:58:34.402Z,96895.88
2019-06-08T23:01:04.164Z,96894.90
2019-06-08T23:03:28.603Z,96892.24
2019-06-08T23:05:55.902Z,96902.88
2019-06-08T23:08:22.705Z,96901.19
2019-06-08T23:10:49.306Z,96888.55
2019-06-08T23:13:17.755Z,96891.53
2019-06-08T23:15:43.874Z,96904.17
2019-06-08T23:18:10.618Z,96897.30
2019-06-08T23:20:37.285Z,96899.31
2019-06-08T23:23:04.298Z,96894.16
2019-06-08T23:25:30.537Z,96895.30
2019-06-08T23:27:56.733Z,96899.27
2019-06-08T23:30:22.912Z,96897.10
2019-06-08T23:32:49.123Z,96901.92
2019-06-08T23:35:15.418Z,96896.09
2019-06-08T23:37:42.162Z,96891.58
2019-06-08T23:40:08.666Z,96900.70
2019-06-08T23:42:34.954Z,96897.37
2019-06-08T23:45:02.325Z,96896.52
2019-06-08T23:47:29.226Z,96899.34
2019-06-08T23:49:57.991Z,96890.72
2019-06-08T23:52:23.600Z,96891.84
2019-06-08T23:54:49.788Z,96898.33
2019-06-08T23:57:17.986Z,96903.95
2019-06-08T23:59:44.070Z,96905.92
